createdAt,value
2022-11-05T00:00:50.818Z,92.86
2022-11-05T00:01:50.841Z,92.76
2022-11-05T00:02:50.797Z,93.07
2022-11-05T00:03:50.872Z,93.83
2022-11-05T00:04:50.783Z,93.38
2022-11-05T00:05:50.779Z,92.97
2022-11-05T00:06:50.777Z,92.25
2022-11-05T00:07:50.759Z,91.74
2022-11-05T00:08:50.762Z,91.84
2022-11-05T00:09:50.754Z,91.88
2022-11-05T00:10:51.017Z,92.55
2022-11-05T00:11:50.734Z,92.14
2022-11-05T00:12:50.732Z,92.04
2022-11-05T00:13:50.744Z,92.76
2022-11-05T00:14:50.718Z,92.76
2022-11-05T00:15:50.703Z,92.66
2022-11-05T00:16:50.694Z,92.76
2022-11-05T00:17:50.689Z,91.80
2022-11-05T00:18:50.681Z,92.14
2022-11-05T00:19:51.060Z,92.04
2022-11-05T00:20:50.814Z,92.00
2022-11-05T00:21:50.922Z,92.76
2022-11-05T00:22:50.646Z,92.93
2022-11-05T00:23:50.645Z,92.93
2022-11-05T00:24:50.632Z,92.61
2022-11-05T00:25:50.631Z,92.31
2022-11-05T00:26:50.626Z,92.82
2022-11-05T00:27:51.734Z,91.80
2022-11-05T00:28:50.613Z,92.00
2022-11-05T00:29:50.644Z,92.00
2022-11-05T00:30:50.598Z,91.38
2022-11-05T00:31:50.588Z,91.69
2022-11-05T00:32:51.234Z,91.12
2022-11-05T00:33:50.790Z,91.33
2022-11-05T00:34:50.563Z,92.25
2022-11-05T00:35:50.577Z,91.84
2022-11-05T00:36:50.564Z,93.12
2022-11-05T00:37:50.859Z,92.76
2022-11-05T00:38:50.542Z,92.91
2022-11-05T00:39:50.531Z,92.66
2022-11-05T00:40:50.990Z,92.86
2022-11-05T00:41:50.524Z,92.66
2022-11-05T00:42:50.507Z,93.17
2022-11-05T00:43:50.525Z,92.97
2022-11-05T00:44:50.500Z,93.02
2022-11-05T00:45:50.523Z,92.55
2022-11-05T00:46:50.485Z,92.72
2022-11-05T00:47:50.499Z,91.80
2022-11-05T00:48:50.470Z,92.04
2022-11-05T00:49:50.475Z,91.12
2022-11-05T00:50:51.371Z,91.02
2022-11-05T00:51:50.462Z,91.53
2022-11-05T00:52:50.466Z,91.78
2022-11-05T00:53:50.438Z,91.16
2022-11-05T00:54:50.456Z,91.57
2022-11-05T00:55:50.427Z,92.19
2022-11-05T00:56:50.410Z,92.08
2022-11-05T00:57:50.404Z,92.04
2022-11-05T00:58:50.405Z,92.29
2022-11-05T00:59:50.402Z,91.94
2022-11-05T01:00:50.394Z,91.84
2022-11-05T01:01:50.649Z,92.35
2022-11-05T01:02:50.644Z,91.42
2022-11-05T01:03:51.912Z,91.37
2022-11-05T01:04:50.368Z,91.33
2022-11-05T01:05:50.380Z,90.95
2022-11-05T01:06:50.349Z,91.33
2022-11-05T01:07:50.346Z,91.02
2022-11-05T01:08:50.330Z,92.04
2022-11-05T01:09:50.328Z,91.94
2022-11-05T01:10:50.323Z,91.12
2022-11-05T01:11:50.329Z,91.94
2022-11-05T01:12:50.323Z,92.14
2022-11-05T01:13:50.300Z,92.04
2022-11-05T01:14:50.285Z,92.04
2022-11-05T01:15:50.281Z,91.84
2022-11-05T01:16:50.278Z,91.63
2022-11-05T01:17:50.303Z,91.53
2022-11-05T01:18:50.281Z,91.94
2022-11-05T01:19:51.617Z,92.14
2022-11-05T01:20:50.244Z,92.55
2022-11-05T01:21:50.242Z,91.94
2022-11-05T01:22:50.243Z,91.94
2022-11-05T01:23:50.225Z,92.04
2022-11-05T01:24:50.229Z,92.46
2022-11-05T01:25:50.221Z,92.46
2022-11-05T01:26:50.202Z,92.46
2022-11-05T01:27:50.217Z,92.41
2022-11-05T01:28:50.326Z,92.66
2022-11-05T01:29:50.205Z,92.66
2022-11-05T01:30:50.183Z,93.13
2022-11-05T01:31:50.171Z,92.61
2022-11-05T01:32:50.167Z,91.80
2022-11-05T01:33:50.288Z,91.80
2022-11-05T01:34:50.149Z,91.12
2022-11-05T01:35:50.154Z,90.91
2022-11-05T01:36:50.135Z,91.22
2022-11-05T01:37:50.129Z,90.91
2022-11-05T01:38:50.127Z,91.42
2022-11-05T01:39:50.128Z,90.95
2022-11-05T01:40:50.112Z,91.99
2022-11-05T01:41:50.121Z,91.78
2022-11-05T01:42:50.106Z,91.88
2022-11-05T01:43:50.091Z,92.08
2022-11-05T01:44:50.613Z,91.99
2022-11-05T01:45:50.074Z,92.29
2022-11-05T01:46:50.084Z,91.88
2022-11-05T01:47:50.066Z,91.99
2022-11-05T01:48:50.052Z,91.88
2022-11-05T01:49:50.138Z,92.29
2022-11-05T01:50:50.055Z,92.08
2022-11-05T01:51:50.812Z,91.78
2022-11-05T01:52:50.043Z,91.53
2022-11-05T01:53:50.033Z,91.99
2022-11-05T01:54:50.005Z,92.08
2022-11-05T01:55:50.005Z,92.04
2022-11-05T01:56:50.021Z,91.88
2022-11-05T01:57:49.985Z,92.55
2022-11-05T01:58:50.008Z,91.67
2022-11-05T01:59:49.972Z,90.91
2022-11-05T02:00:49.969Z,91.53
2022-11-05T02:01:50.775Z,91.63
2022-11-05T02:02:50.238Z,91.63
2022-11-05T02:03:49.989Z,91.57
2022-11-05T02:04:49.947Z,91.53
2022-11-05T02:05:49.963Z,92.08
2022-11-05T02:06:49.935Z,92.19
2022-11-05T02:07:49.922Z,91.99
2022-11-05T02:08:50.612Z,91.33
2022-11-05T02:09:49.903Z,91.33
2022-11-05T02:10:49.936Z,91.57
2022-11-05T02:11:49.885Z,91.88
2022-11-05T02:12:49.900Z,92.08
2022-11-05T02:13:49.881Z,92.08
2022-11-05T02:14:49.868Z,91.67
2022-11-05T02:15:49.864Z,91.47
2022-11-05T02:16:49.855Z,91.27
2022-11-05T02:17:49.848Z,92.50
2022-11-05T02:18:49.845Z,92.80
2022-11-05T02:19:49.856Z,92.50
2022-11-05T02:20:52.336Z,91.88
2022-11-05T02:21:50.236Z,91.88
2022-11-05T02:22:49.813Z,92.08
2022-11-05T02:23:49.808Z,92.50
2022-11-05T02:24:49.803Z,92.40
2022-11-05T02:25:49.797Z,92.66
2022-11-05T02:26:49.779Z,92.66
2022-11-05T02:27:49.798Z,92.76
2022-11-05T02:28:49.781Z,92.76
2022-11-05T02:29:49.760Z,91.74
2022-11-05T02:30:49.760Z,91.02
2022-11-05T02:31:49.749Z,91.63
2022-11-05T02:32:49.740Z,91.02
2022-11-05T02:33:49.750Z,91.53
2022-11-05T02:34:49.727Z,91.02
2022-11-05T02:35:50.300Z,91.08
2022-11-05T02:36:49.722Z,90.91
2022-11-05T02:37:49.730Z,90.91
2022-11-05T02:38:49.694Z,90.91
2022-11-05T02:39:49.695Z,91.12
2022-11-05T02:40:49.686Z,90.71
2022-11-05T02:41:49.676Z,90.81
2022-11-05T02:42:49.673Z,90.91
2022-11-05T02:43:49.670Z,91.06
2022-11-05T02:44:49.669Z,91.16
2022-11-05T02:45:49.649Z,91.53
2022-11-05T02:46:49.651Z,90.81
2022-11-05T02:47:50.178Z,90.91
2022-11-05T02:48:49.626Z,91.22
2022-11-05T02:49:50.293Z,91.16
2022-11-05T02:50:49.644Z,91.12
2022-11-05T02:51:49.619Z,91.53
2022-11-05T02:52:49.611Z,91.74
2022-11-05T02:53:49.616Z,91.42
2022-11-05T02:54:49.594Z,91.53
2022-11-05T02:55:49.614Z,90.91
2022-11-05T02:56:49.596Z,91.12
2022-11-05T02:57:49.565Z,91.12
2022-11-05T02:58:49.551Z,91.42
2022-11-05T02:59:50.828Z,91.33
2022-11-05T03:00:49.538Z,91.02
2022-11-05T03:01:49.694Z,91.53
2022-11-05T03:02:49.730Z,91.33
2022-11-05T03:03:49.521Z,91.12
2022-11-05T03:04:49.517Z,91.33
2022-11-05T03:05:49.508Z,90.91
2022-11-05T03:06:49.556Z,91.53
2022-11-05T03:07:49.490Z,90.71
2022-11-05T03:08:49.488Z,91.22
2022-11-05T03:09:49.745Z,91.12
2022-11-05T03:10:50.649Z,90.61
2022-11-05T03:11:49.464Z,90.36
2022-11-05T03:12:49.455Z,91.02
2022-11-05T03:13:49.444Z,91.22
2022-11-05T03:14:50.106Z,90.81
2022-11-05T03:15:49.861Z,90.20
2022-11-05T03:16:49.434Z,90.81
2022-11-05T03:17:49.432Z,91.02
2022-11-05T03:18:49.416Z,91.22
2022-11-05T03:19:49.413Z,91.12
2022-11-05T03:20:49.853Z,91.08
2022-11-05T03:21:49.391Z,91.42
2022-11-05T03:22:49.398Z,91.12
2022-11-05T03:23:49.387Z,91.42
2022-11-05T03:24:49.374Z,91.42
2022-11-05T03:25:49.387Z,91.12
2022-11-05T03:26:49.373Z,90.81
2022-11-05T03:27:49.351Z,91.42
2022-11-05T03:28:49.353Z,91.02
2022-11-05T03:29:49.338Z,91.12
2022-11-05T03:30:49.331Z,91.33
2022-11-05T03:31:49.334Z,91.22
2022-11-05T03:32:49.322Z,91.42
2022-11-05T03:33:49.335Z,91.53
2022-11-05T03:34:49.302Z,90.91
2022-11-05T03:35:49.304Z,91.12
2022-11-05T03:36:49.292Z,91.12
2022-11-05T03:37:49.284Z,91.12
2022-11-05T03:38:49.780Z,91.47
2022-11-05T03:39:49.270Z,91.57
2022-11-05T03:40:49.260Z,91.06
2022-11-05T03:41:49.287Z,90.91
2022-11-05T03:42:49.248Z,91.12
2022-11-05T03:43:49.652Z,91.47
2022-11-05T03:44:49.237Z,91.16
2022-11-05T03:45:49.223Z,91.16
2022-11-05T03:46:49.233Z,91.16
2022-11-05T03:47:49.632Z,91.47
2022-11-05T03:48:49.289Z,91.47
2022-11-05T03:49:49.204Z,91.10
2022-11-05T03:50:49.184Z,91.61
2022-11-05T03:51:49.187Z,92.33
2022-11-05T03:52:49.179Z,91.88
2022-11-05T03:53:49.819Z,91.93
2022-11-05T03:54:49.158Z,92.23
2022-11-05T03:55:49.159Z,92.80
2022-11-05T03:56:49.159Z,91.99
2022-11-05T03:57:49.161Z,91.88
2022-11-05T03:58:50.032Z,92.19
2022-11-05T03:59:49.141Z,92.08
2022-11-05T04:00:49.112Z,91.88
2022-11-05T04:01:49.293Z,91.99
2022-11-05T04:02:49.272Z,91.57
2022-11-05T04:03:49.101Z,91.57
2022-11-05T04:04:49.096Z,91.57
2022-11-05T04:05:49.080Z,91.16
2022-11-05T04:06:49.629Z,90.95
2022-11-05T04:07:49.064Z,92.19
2022-11-05T04:08:49.059Z,92.29
2022-11-05T04:09:49.064Z,92.29
2022-11-05T04:10:49.085Z,91.78
2022-11-05T04:11:49.687Z,91.88
2022-11-05T04:12:49.032Z,91.78
2022-11-05T04:13:49.053Z,92.29
2022-11-05T04:14:49.014Z,92.08
2022-11-05T04:15:49.032Z,92.19
2022-11-05T04:16:49.003Z,92.40
2022-11-05T04:17:48.993Z,92.80
2022-11-05T04:18:48.991Z,93.12
2022-11-05T04:19:48.988Z,91.88
2022-11-05T04:20:48.969Z,92.70
2022-11-05T04:21:48.982Z,92.50
2022-11-05T04:22:48.960Z,92.70
2022-11-05T04:23:48.955Z,92.40
2022-11-05T04:24:48.949Z,93.42
2022-11-05T04:25:48.987Z,93.07
2022-11-05T04:26:48.943Z,92.60
2022-11-05T04:27:48.924Z,91.88
2022-11-05T04:28:48.922Z,91.99
2022-11-05T04:29:49.107Z,92.40
2022-11-05T04:30:48.910Z,91.94
2022-11-05T04:31:48.921Z,91.84
2022-11-05T04:32:48.888Z,91.22
2022-11-05T04:33:48.888Z,91.94
2022-11-05T04:34:48.871Z,91.74
2022-11-05T04:35:48.873Z,92.04
2022-11-05T04:36:48.866Z,93.21
2022-11-05T04:37:48.855Z,93.27
2022-11-05T04:38:48.857Z,92.66
2022-11-05T04:39:48.835Z,92.14
2022-11-05T04:40:48.829Z,92.08
2022-11-05T04:41:48.965Z,91.53
2022-11-05T04:42:48.830Z,91.67
2022-11-05T04:43:48.815Z,91.78
2022-11-05T04:44:48.808Z,92.08
2022-11-05T04:45:48.825Z,91.99
2022-11-05T04:46:48.792Z,91.88
2022-11-05T04:47:49.201Z,91.99
2022-11-05T04:48:48.778Z,91.88
2022-11-05T04:49:48.777Z,91.88
2022-11-05T04:50:48.761Z,91.93
2022-11-05T04:51:48.762Z,92.03
2022-11-05T04:52:48.749Z,92.23
2022-11-05T04:53:48.743Z,92.23
2022-11-05T04:54:48.737Z,92.54
2022-11-05T04:55:48.724Z,91.82
2022-11-05T04:56:48.715Z,92.33
2022-11-05T04:57:48.720Z,92.44
2022-11-05T04:58:48.724Z,92.03
2022-11-05T04:59:48.704Z,92.13
2022-11-05T05:00:48.893Z,92.13
2022-11-05T05:01:48.771Z,92.48
2022-11-05T05:02:48.679Z,92.07
2022-11-05T05:03:48.670Z,91.86
2022-11-05T05:04:48.673Z,91.97
2022-11-05T05:05:48.682Z,92.79
2022-11-05T05:06:49.644Z,92.79
2022-11-05T05:07:48.644Z,92.58
2022-11-05T05:08:48.632Z,93.30
2022-11-05T05:09:48.634Z,92.63
2022-11-05T05:10:48.619Z,92.93
2022-11-05T05:11:49.216Z,92.83
2022-11-05T05:12:48.614Z,92.73
2022-11-05T05:13:48.602Z,93.35
2022-11-05T05:14:48.609Z,92.83
2022-11-05T05:15:49.474Z,92.83
2022-11-05T05:16:48.586Z,93.40
2022-11-05T05:17:48.597Z,92.93
2022-11-05T05:18:48.575Z,92.89
2022-11-05T05:19:48.561Z,93.10
2022-11-05T05:20:48.561Z,92.99
2022-11-05T05:21:48.579Z,92.93
2022-11-05T05:22:48.540Z,93.10
2022-11-05T05:23:48.556Z,94.02
2022-11-05T05:24:52.584Z,92.89
2022-11-05T05:25:48.522Z,92.93
2022-11-05T05:26:48.542Z,93.30
2022-11-05T05:27:48.513Z,92.83
2022-11-05T05:28:49.229Z,92.58
2022-11-05T05:29:48.504Z,93.24
2022-11-05T05:30:48.494Z,92.73
2022-11-05T05:31:48.495Z,92.42
2022-11-05T05:32:48.473Z,92.27
2022-11-05T05:33:48.498Z,91.91
2022-11-05T05:34:48.465Z,92.21
2022-11-05T05:35:48.459Z,92.25
2022-11-05T05:36:48.450Z,91.29
2022-11-05T05:37:48.451Z,91.23
2022-11-05T05:38:48.455Z,92.16
2022-11-05T05:39:48.426Z,92.97
2022-11-05T05:40:48.424Z,93.18
2022-11-05T05:41:48.423Z,92.20
2022-11-05T05:42:49.150Z,92.92
2022-11-05T05:43:48.410Z,94.15
2022-11-05T05:44:48.433Z,93.58
2022-11-05T05:45:48.396Z,93.68
2022-11-05T05:46:48.385Z,93.58
2022-11-05T05:47:48.376Z,93.88
2022-11-05T05:48:48.372Z,93.48
2022-11-05T05:49:48.402Z,94.09
2022-11-05T05:50:48.361Z,93.01
2022-11-05T05:51:48.357Z,93.83
2022-11-05T05:52:48.360Z,94.24
2022-11-05T05:53:48.339Z,94.34
2022-11-05T05:54:48.369Z,94.34
2022-11-05T05:55:48.331Z,94.24
2022-11-05T05:56:48.312Z,94.85
2022-11-05T05:57:48.413Z,95.17
2022-11-05T05:58:48.299Z,94.13
2022-11-05T05:59:48.302Z,93.01
2022-11-05T06:00:48.302Z,93.21
2022-11-05T06:01:48.427Z,93.73
2022-11-05T06:02:48.409Z,92.84
2022-11-05T06:03:48.328Z,92.33
2022-11-05T06:04:48.277Z,93.15
2022-11-05T06:05:48.369Z,94.28
2022-11-05T06:06:48.292Z,93.77
2022-11-05T06:07:48.278Z,94.23
2022-11-05T06:08:48.230Z,94.23
2022-11-05T06:09:48.232Z,94.23
2022-11-05T06:10:48.859Z,93.71
2022-11-05T06:11:48.219Z,93.60
2022-11-05T06:12:48.263Z,93.87
2022-11-05T06:13:48.219Z,94.32
2022-11-05T06:14:48.301Z,93.19
2022-11-05T06:15:48.216Z,93.71
2022-11-05T06:16:48.176Z,94.06
2022-11-05T06:17:51.705Z,93.71
2022-11-05T06:18:48.176Z,93.96
2022-11-05T06:19:48.162Z,94.37
2022-11-05T06:20:48.156Z,94.57
2022-11-05T06:21:48.292Z,95.09
2022-11-05T06:22:48.167Z,94.68
2022-11-05T06:23:48.165Z,94.78
2022-11-05T06:24:48.134Z,95.20
2022-11-05T06:25:48.131Z,95.09
2022-11-05T06:26:48.120Z,95.30
2022-11-05T06:27:48.185Z,94.89
2022-11-05T06:28:48.124Z,94.68
2022-11-05T06:29:48.094Z,94.17
2022-11-05T06:30:48.099Z,94.17
2022-11-05T06:31:48.125Z,93.96
2022-11-05T06:32:48.082Z,94.57
2022-11-05T06:33:48.077Z,95.61
2022-11-05T06:34:48.065Z,95.30
2022-11-05T06:35:48.056Z,94.78
2022-11-05T06:36:48.043Z,94.47
2022-11-05T06:37:48.185Z,94.57
2022-11-05T06:38:48.035Z,94.37
2022-11-05T06:39:48.051Z,94.37
2022-11-05T06:40:48.038Z,94.42
2022-11-05T06:42:16.511Z,95.96
2022-11-05T06:42:49.016Z,95.09
2022-11-05T06:43:48.011Z,94.42
2022-11-05T06:44:48.008Z,95.03
2022-11-05T06:45:47.996Z,95.24
2022-11-05T06:46:48.761Z,95.86
2022-11-05T06:47:47.969Z,95.14
2022-11-05T06:48:47.990Z,94.93
2022-11-05T06:49:48.133Z,94.89
2022-11-05T06:50:48.356Z,94.47
2022-11-05T06:51:48.895Z,94.47
2022-11-05T06:52:47.944Z,94.47
2022-11-05T06:53:47.955Z,92.93
2022-11-05T06:54:47.934Z,93.49
2022-11-05T06:55:47.937Z,93.13
2022-11-05T06:56:47.913Z,93.24
2022-11-05T06:57:47.917Z,93.60
2022-11-05T06:58:47.898Z,92.47
2022-11-05T06:59:47.910Z,92.27
2022-11-05T07:00:48.733Z,92.06
2022-11-05T07:01:48.528Z,92.47
2022-11-05T07:02:47.905Z,92.02
2022-11-05T07:03:47.884Z,92.47
2022-11-05T07:04:47.865Z,92.57
2022-11-05T07:05:47.877Z,92.68
2022-11-05T07:06:47.871Z,92.33
2022-11-05T07:07:47.876Z,91.87
2022-11-05T07:08:47.835Z,91.56
2022-11-05T07:09:47.862Z,91.21
2022-11-05T07:10:47.825Z,91.27
2022-11-05T07:11:47.816Z,91.17
2022-11-05T07:12:47.817Z,90.96
2022-11-05T07:13:47.824Z,90.47
2022-11-05T07:14:47.804Z,90.30
2022-11-05T07:15:47.799Z,90.51
2022-11-05T07:16:47.786Z,90.67
2022-11-05T07:17:47.834Z,90.81
2022-11-05T07:18:47.799Z,89.89
2022-11-05T07:19:47.768Z,89.94
2022-11-05T07:20:47.770Z,90.34
2022-11-05T07:21:47.757Z,90.34
2022-11-05T07:22:47.744Z,90.33
2022-11-05T07:23:47.774Z,90.73
2022-11-05T07:24:47.739Z,91.25
2022-11-05T07:25:47.752Z,91.25
2022-11-05T07:26:47.724Z,91.87
2022-11-05T07:27:47.723Z,91.46
2022-11-05T07:28:48.134Z,91.25
2022-11-05T07:29:47.705Z,91.62
2022-11-05T07:30:48.220Z,91.27
2022-11-05T07:31:47.700Z,91.53
2022-11-05T07:32:47.687Z,90.36
2022-11-05T07:33:47.685Z,89.81
2022-11-05T07:34:47.673Z,89.36
2022-11-05T07:35:47.666Z,88.59
2022-11-05T07:36:47.671Z,87.28
2022-11-05T07:37:47.685Z,86.66
2022-11-05T07:38:47.650Z,85.25
2022-11-05T07:39:47.643Z,84.95
2022-11-05T07:40:47.648Z,85.46
2022-11-05T07:41:47.651Z,84.19
2022-11-05T07:42:48.196Z,83.78
2022-11-05T07:43:47.605Z,83.74
2022-11-05T07:44:47.615Z,83.03
2022-11-05T07:45:47.587Z,82.48
2022-11-05T07:46:47.583Z,83.05
2022-11-05T07:47:47.649Z,83.62
2022-11-05T07:48:47.562Z,81.85
2022-11-05T07:49:47.566Z,81.10
2022-11-05T07:50:47.550Z,79.83
2022-11-05T07:51:47.544Z,81.12
2022-11-05T07:52:47.547Z,79.25
2022-11-05T07:53:47.545Z,78.84
2022-11-05T07:54:47.531Z,77.72
2022-11-05T07:55:47.526Z,77.00
2022-11-05T07:56:47.507Z,77.78
2022-11-05T07:57:47.645Z,79.00
2022-11-05T07:58:47.495Z,76.35
2022-11-05T07:59:47.490Z,76.35
2022-11-05T08:00:47.629Z,77.14
2022-11-05T08:01:47.686Z,76.62
2022-11-05T08:02:47.741Z,76.93
2022-11-05T08:03:47.657Z,76.79
2022-11-05T08:04:47.451Z,75.95
2022-11-05T08:05:47.457Z,75.46
2022-11-05T08:06:47.452Z,74.82
2022-11-05T08:07:47.433Z,73.39
2022-11-05T08:08:47.432Z,72.55
2022-11-05T08:09:47.426Z,71.53
2022-11-05T08:10:47.410Z,71.30
2022-11-05T08:11:47.405Z,70.96
2022-11-05T08:12:48.086Z,70.25
2022-11-05T08:13:47.429Z,69.34
2022-11-05T08:14:47.397Z,70.25
2022-11-05T08:15:47.383Z,69.54
2022-11-05T08:16:47.365Z,69.87
2022-11-05T08:17:47.755Z,68.96
2022-11-05T08:18:47.350Z,68.35
2022-11-05T08:19:47.347Z,68.83
2022-11-05T08:20:47.369Z,68.93
2022-11-05T08:21:47.330Z,69.10
2022-11-05T08:22:47.326Z,68.19
2022-11-05T08:23:47.334Z,68.29
2022-11-05T08:24:47.304Z,67.38
2022-11-05T08:25:47.324Z,67.78
2022-11-05T08:26:47.310Z,68.22
2022-11-05T08:27:47.294Z,68.96
2022-11-05T08:28:47.309Z,69.74
2022-11-05T08:29:47.304Z,69.74
2022-11-05T08:30:47.266Z,68.35
2022-11-05T08:31:47.260Z,69.50
2022-11-05T08:32:47.253Z,69.30
2022-11-05T08:33:47.254Z,70.11
2022-11-05T08:34:47.254Z,70.18
2022-11-05T08:35:47.237Z,66.02
2022-11-05T08:36:48.935Z,69.37
2022-11-05T08:37:47.222Z,69.34
2022-11-05T08:38:47.209Z,69.34
2022-11-05T08:39:47.201Z,67.54
2022-11-05T08:40:47.202Z,68.62
2022-11-05T08:41:47.213Z,68.05
2022-11-05T08:42:47.174Z,69.74
2022-11-05T08:43:47.240Z,69.23
2022-11-05T08:44:47.191Z,65.85
2022-11-05T08:45:47.193Z,65.95
2022-11-05T08:46:47.320Z,66.90
2022-11-05T08:47:47.246Z,66.19
2022-11-05T08:48:47.136Z,68.19
2022-11-05T08:49:47.137Z,67.61
2022-11-05T08:50:47.130Z,67.10
2022-11-05T08:51:47.114Z,67.71
2022-11-05T08:52:48.018Z,67.71
2022-11-05T08:53:47.118Z,68.86
2022-11-05T08:54:47.101Z,67.91
2022-11-05T08:55:47.143Z,69.10
2022-11-05T08:56:48.079Z,67.88
2022-11-05T08:57:47.083Z,66.56
2022-11-05T08:58:47.069Z,66.86
2022-11-05T08:59:47.060Z,67.65
2022-11-05T09:00:47.107Z,67.95
2022-11-05T09:01:48.330Z,67.92
2022-11-05T09:02:47.042Z,65.48
2022-11-05T09:03:47.034Z,65.48
2022-11-05T09:04:47.732Z,67.21
2022-11-05T09:05:47.055Z,66.27
2022-11-05T09:06:47.023Z,66.47
2022-11-05T09:07:47.020Z,64.41
2022-11-05T09:08:47.044Z,64.11
2022-11-05T09:09:47.012Z,63.67
2022-11-05T09:10:47.044Z,63.78
2022-11-05T09:12:10.650Z,62.96
2022-11-05T09:12:47.963Z,63.17
2022-11-05T09:13:46.998Z,61.82
2022-11-05T09:14:46.964Z,63.34
2022-11-05T09:15:47.044Z,63.17
2022-11-05T09:16:46.999Z,63.40
2022-11-05T09:17:47.071Z,63.09
2022-11-05T09:18:46.924Z,63.06
2022-11-05T09:19:46.979Z,66.50
2022-11-05T09:20:46.920Z,65.28
2022-11-05T09:21:46.916Z,66.06
2022-11-05T09:22:47.151Z,64.54
2022-11-05T09:23:46.919Z,64.30
2022-11-05T09:24:46.903Z,65.82
2022-11-05T09:25:46.905Z,65.42
2022-11-05T09:26:46.865Z,65.31
2022-11-05T09:27:46.860Z,66.30
2022-11-05T09:28:46.870Z,65.31
2022-11-05T09:29:46.850Z,65.48
2022-11-05T09:30:46.889Z,64.27
2022-11-05T09:31:46.844Z,65.42
2022-11-05T09:32:46.858Z,65.45
2022-11-05T09:33:47.034Z,65.95
2022-11-05T09:34:46.838Z,66.05
2022-11-05T09:35:46.811Z,65.82
2022-11-05T09:36:46.869Z,65.89
2022-11-05T09:37:46.800Z,64.78
2022-11-05T09:38:47.532Z,64.78
2022-11-05T09:39:47.305Z,64.30
2022-11-05T09:40:46.785Z,64.10
2022-11-05T09:41:46.785Z,64.50
2022-11-05T09:42:46.775Z,64.00
2022-11-05T09:43:46.753Z,63.11
2022-11-05T09:44:49.539Z,64.03
2022-11-05T09:45:46.782Z,64.43
2022-11-05T09:46:46.734Z,63.72
2022-11-05T09:47:46.740Z,64.10
2022-11-05T09:48:46.727Z,64.81
2022-11-05T09:49:46.737Z,63.69
2022-11-05T09:50:46.712Z,64.07
2022-11-05T09:51:46.708Z,63.83
2022-11-05T09:52:46.695Z,62.82
2022-11-05T09:53:46.691Z,62.29
2022-11-05T09:54:46.684Z,63.27
2022-11-05T09:55:47.109Z,61.14
2022-11-05T09:56:46.667Z,60.57
2022-11-05T09:57:46.652Z,63.37
2022-11-05T09:58:46.654Z,61.65
2022-11-05T09:59:46.647Z,61.82
2022-11-05T10:00:46.669Z,61.65
2022-11-05T10:01:46.752Z,61.37
2022-11-05T10:02:46.627Z,62.79
2022-11-05T10:03:46.605Z,60.77
2022-11-05T10:04:46.605Z,62.11
2022-11-05T10:05:47.607Z,61.80
2022-11-05T10:06:46.586Z,62.38
2022-11-05T10:07:46.590Z,61.78
2022-11-05T10:08:46.638Z,61.78
2022-11-05T10:09:46.568Z,61.44
2022-11-05T10:10:46.563Z,61.04
2022-11-05T10:11:47.088Z,61.35
2022-11-05T10:12:46.576Z,61.90
2022-11-05T10:13:46.539Z,59.03
2022-11-05T10:14:46.543Z,60.85
2022-11-05T10:15:46.531Z,60.09
2022-11-05T10:16:46.519Z,59.89
2022-11-05T10:17:46.506Z,58.12
2022-11-05T10:18:46.496Z,58.25
2022-11-05T10:19:46.493Z,56.63
2022-11-05T10:20:46.530Z,57.26
2022-11-05T10:22:49.615Z,58.95
2022-11-05T10:23:46.496Z,57.10
2022-11-05T10:24:46.504Z,58.89
2022-11-05T10:25:46.454Z,58.47
2022-11-05T10:26:47.422Z,54.94
2022-11-05T10:27:46.453Z,54.86
2022-11-05T10:28:46.419Z,55.04
2022-11-05T10:29:46.441Z,57.69
2022-11-05T10:30:46.413Z,57.24
2022-11-05T10:31:46.397Z,56.94
2022-11-05T10:32:46.404Z,58.05
2022-11-05T10:33:47.352Z,58.12
2022-11-05T10:34:46.439Z,58.50
2022-11-05T10:35:46.384Z,58.91
2022-11-05T10:36:46.381Z,57.43
2022-11-05T10:37:46.381Z,54.48
2022-11-05T10:38:46.353Z,57.10
2022-11-05T10:39:46.354Z,55.97
2022-11-05T10:40:46.339Z,56.15
2022-11-05T10:41:46.333Z,54.41
2022-11-05T10:42:46.333Z,53.27
2022-11-05T10:43:46.340Z,52.97
2022-11-05T10:44:46.340Z,54.71
2022-11-05T10:45:46.317Z,53.63
2022-11-05T10:46:46.346Z,55.44
2022-11-05T10:47:46.294Z,53.52
2022-11-05T10:48:46.293Z,54.43
2022-11-05T10:49:46.408Z,52.39
2022-11-05T10:50:46.270Z,54.41
2022-11-05T10:51:46.284Z,54.48
2022-11-05T10:52:46.263Z,54.18
2022-11-05T10:53:46.312Z,53.70
2022-11-05T10:54:46.266Z,54.53
2022-11-05T10:55:46.237Z,52.64
2022-11-05T10:56:46.217Z,53.42
2022-11-05T10:57:46.227Z,55.09
2022-11-05T10:58:46.228Z,56.51
2022-11-05T10:59:46.204Z,56.68
2022-11-05T11:00:46.287Z,55.90
2022-11-05T11:01:46.279Z,57.11
2022-11-05T11:02:46.172Z,57.47
2022-11-05T11:03:46.167Z,57.29
2022-11-05T11:04:46.212Z,58.34
2022-11-05T11:05:46.161Z,58.90
2022-11-05T11:06:46.153Z,60.01
2022-11-05T11:07:46.145Z,60.85
2022-11-05T11:08:46.130Z,61.05
2022-11-05T11:09:46.613Z,61.05
2022-11-05T11:10:46.115Z,61.41
2022-11-05T11:11:46.109Z,60.94
2022-11-05T11:12:46.106Z,61.68
2022-11-05T11:13:46.156Z,62.16
2022-11-05T11:14:46.108Z,63.04
2022-11-05T11:15:46.085Z,61.52
2022-11-05T11:16:46.082Z,62.66
2022-11-05T11:17:46.203Z,63.51
2022-11-05T11:18:46.082Z,63.60
2022-11-05T11:19:46.075Z,61.85
2022-11-05T11:20:46.044Z,61.75
2022-11-05T11:21:46.054Z,63.34
2022-11-05T11:22:46.066Z,62.20
2022-11-05T11:23:46.099Z,60.55
2022-11-05T11:24:46.035Z,60.14
2022-11-05T11:25:46.043Z,59.91
2022-11-05T11:26:46.014Z,60.06
2022-11-05T11:27:46.005Z,58.74
2022-11-05T11:28:46.805Z,58.51
2022-11-05T11:29:49.382Z,59.01
2022-11-05T11:30:45.979Z,58.38
2022-11-05T11:31:45.978Z,58.38
2022-11-05T11:32:45.970Z,58.81
2022-11-05T11:33:46.000Z,58.48
2022-11-05T11:34:45.948Z,58.78
2022-11-05T11:35:45.953Z,58.56
2022-11-05T11:36:45.925Z,57.62
2022-11-05T11:37:45.927Z,57.52
2022-11-05T11:38:45.964Z,57.29
2022-11-05T11:39:45.911Z,56.45
2022-11-05T11:40:45.917Z,56.07
2022-11-05T11:41:45.927Z,56.40
2022-11-05T11:42:45.904Z,56.40
2022-11-05T11:43:45.887Z,57.21
2022-11-05T11:44:45.912Z,57.52
2022-11-05T11:45:45.909Z,57.72
2022-11-05T11:46:45.892Z,56.65
2022-11-05T11:47:45.853Z,55.72
2022-11-05T11:48:45.835Z,54.21
2022-11-05T11:49:45.864Z,54.58
2022-11-05T11:50:45.827Z,54.86
2022-11-05T11:51:49.954Z,53.55
2022-11-05T11:52:45.850Z,53.25
2022-11-05T11:53:45.810Z,53.07
2022-11-05T11:54:45.799Z,53.40
2022-11-05T11:55:46.270Z,53.90
2022-11-05T11:56:46.029Z,52.92
2022-11-05T11:57:45.809Z,53.85
2022-11-05T11:58:45.772Z,53.50
2022-11-05T12:00:07.723Z,53.30
2022-11-05T12:00:46.764Z,53.32
2022-11-05T12:01:45.808Z,53.65
2022-11-05T12:02:46.319Z,53.88
2022-11-05T12:03:45.743Z,55.16
2022-11-05T12:04:45.749Z,55.07
2022-11-05T12:05:45.723Z,54.03
2022-11-05T12:06:45.738Z,53.93
2022-11-05T12:07:47.076Z,54.36
2022-11-05T12:08:52.246Z,54.25
2022-11-05T12:09:46.689Z,54.51
2022-11-05T12:10:45.704Z,53.00
2022-11-05T12:11:45.679Z,52.29
2022-11-05T12:12:45.855Z,53.88
2022-11-05T12:13:45.688Z,52.29
2022-11-05T12:14:46.758Z,51.78
2022-11-05T12:15:45.658Z,52.39
2022-11-05T12:16:45.636Z,51.91
2022-11-05T12:17:45.628Z,53.34
2022-11-05T12:18:45.629Z,52.61
2022-11-05T12:19:46.160Z,52.09
2022-11-05T12:20:48.264Z,51.68
2022-11-05T12:21:53.015Z,52.84
2022-11-05T12:22:46.596Z,53.98
2022-11-05T12:23:45.621Z,53.52
2022-11-05T12:24:45.585Z,54.18
2022-11-05T12:25:45.577Z,55.15
2022-11-05T12:26:45.571Z,56.70
2022-11-05T12:27:45.566Z,57.12
2022-11-05T12:29:12.166Z,58.54
2022-11-05T12:29:46.567Z,58.24
2022-11-05T12:30:45.545Z,58.47
2022-11-05T12:31:45.563Z,59.01
2022-11-05T12:32:45.607Z,57.71
2022-11-05T12:33:45.523Z,58.45
2022-11-05T12:34:45.579Z,58.56
2022-11-05T12:35:48.195Z,58.96
2022-11-05T12:36:46.500Z,59.37
2022-11-05T12:37:45.484Z,59.27
2022-11-05T12:38:45.481Z,58.86
2022-11-05T12:39:45.516Z,58.86
2022-11-05T12:40:45.463Z,60.49
2022-11-05T12:41:45.485Z,60.72
2022-11-05T12:42:45.459Z,59.53
2022-11-05T12:43:45.472Z,61.15
2022-11-05T12:44:45.442Z,61.90
2022-11-05T12:45:45.475Z,61.18
2022-11-05T12:46:45.419Z,62.20
2022-11-05T12:47:45.418Z,62.43
2022-11-05T12:48:45.414Z,62.54
2022-11-05T12:49:45.401Z,61.82
2022-11-05T12:50:45.399Z,61.93
2022-11-05T12:51:45.424Z,62.43
2022-11-05T12:52:45.419Z,62.33
2022-11-05T12:53:45.377Z,62.74